createdAt,value
2023-02-15T00:04:10.787Z,43.40
2023-02-15T00:09:13.819Z,38.40
2023-02-15T00:14:25.145Z,39.10
2023-02-15T00:19:28.203Z,43.70
2023-02-15T00:24:31.108Z,41.20
2023-02-15T00:29:34.094Z,43.90
2023-02-15T00:34:37.001Z,36.00
2023-02-15T00:39:39.892Z,41.70
2023-02-15T00:44:42.761Z,42.10
2023-02-15T00:49:45.680Z,43.40
2023-02-15T00:54:48.561Z,45.50
2023-02-15T00:59:52.206Z,37.50
2023-02-15T01:04:55.239Z,39.80
2023-02-15T01:09:58.166Z,38.30
2023-02-15T01:15:01.071Z,39.40
2023-02-15T01:20:07.646Z,39.10
2023-02-15T01:25:10.698Z,41.30
2023-02-15T01:30:35.956Z,40.90
2023-02-15T01:35:39.089Z,43.90
2023-02-15T01:40:42.080Z,42.40
2023-02-15T01:45:47.529Z,42.30
2023-02-15T01:50:56.959Z,42.60
2023-02-15T01:56:03.943Z,38.60
2023-02-15T02:01:08.701Z,36.60
2023-02-15T02:06:12.160Z,36.70
2023-02-15T02:11:15.632Z,38.40
2023-02-15T02:16:45.087Z,37.80
2023-02-15T02:21:54.330Z,39.40
2023-02-15T02:27:35.858Z,39.00
2023-02-15T02:33:19.359Z,40.50
2023-02-15T02:38:43.391Z,37.70
2023-02-15T02:43:52.746Z,39.40
2023-02-15T02:48:55.766Z,38.40
2023-02-15T02:54:01.885Z,42.70
2023-02-15T02:59:31.661Z,36.60
2023-02-15T03:04:37.962Z,39.80
2023-02-15T03:09:54.752Z,42.30
2023-02-15T03:15:11.784Z,44.30
2023-02-15T03:20:19.740Z,40.10
2023-02-15T03:25:26.518Z,38.60
2023-02-15T03:30:29.596Z,41.20
2023-02-15T03:35:40.424Z,42.70
2023-02-15T03:41:01.861Z,41.30
2023-02-15T03:46:13.643Z,36.00
2023-02-15T03:51:34.418Z,36.50
2023-02-15T03:56:40.168Z,36.70
2023-02-15T04:02:06.688Z,37.90
2023-02-15T04:07:09.883Z,35.90
2023-02-15T04:12:12.854Z,38.00
2023-02-15T04:17:15.693Z,34.50
2023-02-15T04:22:37.289Z,36.00
2023-02-15T04:27:43.007Z,39.80
2023-02-15T04:32:46.071Z,37.70
2023-02-15T04:37:50.202Z,34.90
2023-02-15T04:42:53.055Z,39.90
2023-02-15T04:47:57.339Z,35.80
2023-02-15T04:53:00.378Z,39.20
2023-02-15T04:58:03.210Z,42.50
2023-02-15T05:03:06.201Z,39.80
2023-02-15T05:08:09.237Z,40.80
2023-02-15T05:13:12.171Z,42.20
2023-02-15T05:18:15.089Z,39.70
2023-02-15T05:23:18.018Z,39.80
2023-02-15T05:28:21.818Z,38.70
2023-02-15T05:33:24.927Z,39.70
2023-02-15T05:38:27.794Z,43.70
2023-02-15T05:43:30.919Z,38.60
2023-02-15T05:48:33.931Z,37.00
2023-02-15T05:53:40.784Z,36.80
2023-02-15T05:58:43.694Z,37.90
2023-02-15T06:03:47.294Z,34.20
2023-02-15T06:08:50.739Z,30.60
2023-02-15T06:13:53.607Z,34.40
2023-02-15T06:18:56.591Z,33.30
2023-02-15T06:23:59.538Z,30.80
2023-02-15T06:29:02.420Z,36.20
2023-02-15T06:34:05.847Z,35.10
2023-02-15T06:39:08.760Z,32.50
2023-02-15T06:44:11.616Z,35.40
2023-02-15T06:49:14.510Z,31.10
2023-02-15T06:54:18.547Z,30.50
2023-02-15T06:59:21.593Z,31.20
2023-02-15T07:04:24.525Z,34.20
2023-02-15T07:09:27.556Z,32.80
2023-02-15T07:14:30.502Z,35.40
2023-02-15T07:19:33.353Z,38.10
2023-02-15T07:24:36.636Z,40.10
2023-02-15T07:29:40.682Z,38.90
2023-02-15T07:34:43.757Z,36.80
2023-02-15T07:39:46.633Z,35.70
2023-02-15T07:44:49.525Z,33.80
2023-02-15T07:49:52.747Z,38.70
2023-02-15T07:54:56.773Z,38.20
2023-02-15T07:59:59.688Z,41.00
2023-02-15T08:05:02.577Z,41.00
2023-02-15T08:10:06.385Z,43.20
2023-02-15T08:15:09.360Z,44.90
2023-02-15T08:20:12.320Z,43.50
2023-02-15T08:25:16.817Z,36.70
2023-02-15T08:30:19.890Z,34.10
2023-02-15T08:35:24.404Z,33.80
2023-02-15T08:40:27.431Z,36.70
2023-02-15T08:45:30.339Z,33.90
2023-02-15T08:50:33.604Z,26.50
2023-02-15T08:55:41.631Z,26.50
2023-02-15T09:00:46.572Z,26.00
2023-02-15T09:05:51.953Z,28.80
2023-02-15T09:10:54.998Z,31.50
2023-02-15T09:16:06.414Z,38.60
2023-02-15T09:21:14.940Z,41.90
2023-02-15T09:26:22.817Z,37.50
2023-02-15T09:31:30.506Z,36.10
2023-02-15T09:36:36.037Z,36.60
2023-02-15T09:42:39.772Z,42.50
2023-02-15T09:48:28.668Z,43.40
2023-02-15T09:53:45.338Z,47.00
2023-02-15T09:59:07.028Z,41.60
2023-02-15T10:04:17.806Z,41.10
2023-02-15T10:09:49.152Z,41.10
2023-02-15T10:15:15.873Z,34.70
2023-02-15T10:20:25.239Z,32.00
2023-02-15T10:25:43.343Z,31.60
2023-02-15T10:30:59.573Z,30.30
2023-02-15T10:36:36.361Z,32.00
2023-02-15T10:41:57.894Z,31.00
2023-02-15T10:47:31.838Z,27.70
2023-02-15T10:52:40.327Z,28.90
2023-02-15T10:58:13.035Z,26.20
2023-02-15T11:04:29.405Z,28.60
2023-02-15T11:09:46.119Z,29.30
2023-02-15T11:15:16.559Z,27.50
2023-02-15T11:20:31.758Z,30.10
2023-02-15T11:25:36.180Z,27.90
2023-02-15T11:30:45.900Z,29.50
2023-02-15T11:36:01.599Z,25.70
2023-02-15T11:41:08.719Z,28.80
2023-02-15T11:46:13.421Z,27.70
2023-02-15T11:51:23.820Z,33.60
2023-02-15T11:56:36.567Z,31.60
2023-02-15T12:01:46.316Z,35.40
2023-02-15T12:07:12.684Z,35.30
2023-02-15T12:12:35.220Z,35.80
2023-02-15T12:17:51.733Z,33.70
2023-02-15T12:23:03.785Z,27.80
2023-02-15T12:28:25.986Z,31.70
2023-02-15T12:33:47.054Z,35.70
2023-02-15T12:39:18.440Z,30.90
2023-02-15T12:44:28.101Z,34.50
2023-02-15T12:49:37.125Z,37.50
2023-02-15T12:54:43.422Z,36.10
2023-02-15T13:00:00.554Z,41.30
2023-02-15T13:05:34.183Z,39.40
2023-02-15T13:10:44.180Z,45.10
2023-02-15T13:15:48.245Z,43.80
2023-02-15T13:20:51.172Z,41.30
2023-02-15T13:25:54.390Z,41.10
2023-02-15T13:30:57.974Z,39.20
2023-02-15T13:36:10.674Z,42.80
2023-02-15T13:41:17.455Z,39.50
2023-02-15T13:47:08.583Z,43.30
2023-02-15T13:52:27.854Z,45.30
2023-02-15T13:57:52.328Z,45.70
2023-02-15T14:03:24.660Z,46.40
2023-02-15T14:08:40.491Z,45.90
2023-02-15T14:13:58.302Z,48.70
2023-02-15T14:19:18.179Z,46.40
2023-02-15T14:25:27.371Z,51.70
2023-02-15T14:30:34.252Z,53.00
2023-02-15T14:35:38.204Z,54.50
2023-02-15T14:41:01.945Z,58.00
2023-02-15T14:46:51.560Z,52.20
2023-02-15T14:51:57.925Z,52.20
2023-02-15T14:57:03.731Z,49.80
2023-02-15T15:02:09.851Z,45.40
2023-02-15T15:07:13.941Z,43.40
2023-02-15T15:12:23.331Z,45.00
2023-02-15T15:17:40.053Z,47.10
2023-02-15T15:22:43.562Z,49.70
2023-02-15T15:27:55.353Z,48.50
2023-02-15T15:33:52.076Z,48.10
2023-02-15T15:39:03.043Z,44.10
2023-02-15T15:45:05.071Z,46.20
2023-02-15T15:50:17.590Z,44.70
2023-02-15T15:55:24.359Z,42.10
2023-02-15T16:00:45.707Z,45.70
2023-02-15T16:05:53.941Z,42.40
2023-02-15T16:10:57.462Z,40.10
2023-02-15T16:16:00.415Z,37.20
2023-02-15T16:21:05.253Z,40.50
2023-02-15T16:26:48.903Z,40.00
2023-02-15T16:32:01.323Z,39.40
2023-02-15T16:37:34.608Z,45.80
2023-02-15T16:42:37.933Z,41.00
2023-02-15T16:47:45.952Z,46.40
2023-02-15T16:52:49.988Z,48.00
2023-02-15T16:57:57.056Z,46.00
2023-02-15T17:03:14.518Z,50.00
2023-02-15T17:08:33.452Z,48.20
2023-02-15T17:18:48.517Z,48.20
2023-02-15T17:23:52.693Z,48.80
2023-02-15T17:29:01.554Z,49.00
2023-02-15T17:35:01.071Z,51.40
2023-02-15T17:40:29.553Z,51.00
2023-02-15T17:45:36.539Z,51.20
2023-02-15T17:50:41.132Z,46.60
2023-02-15T17:55:44.045Z,48.60
2023-02-15T18:01:15.102Z,49.90
2023-02-15T18:06:36.962Z,51.70
2023-02-15T18:11:41.060Z,51.20
2023-02-15T18:16:45.784Z,49.40
2023-02-15T18:21:50.512Z,50.10
2023-02-15T18:26:55.748Z,51.00
2023-02-15T18:31:58.689Z,51.70
2023-02-15T18:37:02.517Z,50.40
2023-02-15T18:42:05.946Z,54.30
2023-02-15T18:47:09.030Z,56.70
2023-02-15T18:52:21.924Z,50.40
2023-02-15T18:57:24.787Z,52.30
2023-02-15T19:02:28.404Z,49.90
2023-02-15T19:07:31.543Z,51.30
2023-02-15T19:12:34.583Z,49.30
2023-02-15T19:17:38.374Z,51.30
2023-02-15T19:22:41.328Z,52.80
2023-02-15T19:27:46.505Z,51.60
2023-02-15T19:32:49.501Z,54.30
2023-02-15T19:37:54.700Z,57.60
2023-02-15T19:42:57.583Z,53.20
2023-02-15T19:48:05.816Z,58.90
2023-02-15T19:53:19.305Z,57.70
2023-02-15T19:58:22.437Z,56.50
2023-02-15T20:03:25.394Z,59.20
2023-02-15T20:08:28.449Z,56.50
2023-02-15T20:13:31.613Z,58.10
2023-02-15T20:18:35.266Z,61.70
2023-02-15T20:23:38.156Z,68.10
2023-02-15T20:28:40.963Z,67.60
2023-02-15T20:33:43.783Z,81.60
2023-02-15T20:38:46.871Z,86.20
2023-02-15T20:43:49.805Z,84.10
2023-02-15T20:48:52.667Z,77.10
2023-02-15T20:53:55.529Z,70.30
2023-02-15T20:58:58.930Z,70.30
2023-02-15T21:04:01.843Z,74.40
2023-02-15T21:09:04.850Z,69.20
2023-02-15T21:14:29.013Z,64.90
2023-02-15T21:19:31.866Z,65.70
2023-02-15T21:24:34.687Z,67.30
2023-02-15T21:29:37.670Z,67.30
2023-02-15T21:34:40.950Z,64.70
2023-02-15T21:39:43.834Z,65.70
2023-02-15T21:45:05.716Z,68.80
2023-02-15T21:50:46.624Z,64.10
2023-02-15T21:55:50.258Z,64.70
2023-02-15T22:00:55.558Z,64.50
2023-02-15T22:05:58.574Z,65.90
2023-02-15T22:11:01.750Z,67.00
2023-02-15T22:16:05.308Z,67.80
2023-02-15T22:21:09.824Z,69.00
2023-02-15T22:26:22.666Z,73.40
2023-02-15T22:31:27.096Z,79.10
2023-02-15T22:36:31.231Z,83.40
2023-02-15T22:41:34.570Z,88.50
2023-02-15T22:46:38.403Z,91.20
2023-02-15T22:51:41.458Z,93.50
2023-02-15T22:56:54.516Z,93.50
2023-02-15T23:01:57.618Z,98.70
2023-02-15T23:07:01.165Z,97.00
2023-02-15T23:12:06.346Z,99.90
2023-02-15T23:17:10.310Z,93.00
2023-02-15T23:22:15.689Z,100.20
2023-02-15T23:27:37.980Z,95.90
2023-02-15T23:32:40.949Z,98.20
2023-02-15T23:37:43.912Z,95.10
2023-02-15T23:42:47.239Z,97.30
2023-02-15T23:48:08.910Z,99.20
2023-02-15T23:53:11.896Z,100.50
2023-02-15T23:58:17.529Z,102.30
